createdAt,value
2022-12-19T00:01:36.206Z,33.42
2022-12-19T00:06:34.877Z,33.88
2022-12-19T00:09:01.658Z,40.42
2022-12-19T00:11:29.614Z,36.53
2022-12-19T00:13:57.079Z,42.15
2022-12-19T00:16:26.049Z,36.72
2022-12-19T00:18:55.518Z,33.70
2022-12-19T00:21:24.978Z,37.00
2022-12-19T00:23:52.245Z,35.95
2022-12-19T00:26:25.008Z,38.63
2022-12-19T00:29:00.507Z,35.65
2022-12-19T00:31:29.696Z,36.38
2022-12-19T00:33:57.149Z,41.67
2022-12-19T00:36:26.926Z,36.80
2022-12-19T00:38:55.578Z,32.85
2022-12-19T00:41:34.266Z,39.22
2022-12-19T00:44:03.680Z,33.58
2022-12-19T00:46:34.178Z,39.60
2022-12-19T00:49:01.453Z,43.13
2022-12-19T00:51:33.288Z,37.92
2022-12-19T00:54:00.023Z,35.38
2022-12-19T00:56:33.465Z,35.33
2022-12-19T00:59:06.251Z,37.25
2022-12-19T01:01:36.275Z,39.72
2022-12-19T01:04:27.599Z,38.20
2022-12-19T01:06:52.583Z,41.17
2022-12-19T01:09:21.589Z,43.90
2022-12-19T01:12:07.958Z,37.25
2022-12-19T01:14:35.105Z,43.78
2022-12-19T01:17:01.787Z,37.65
2022-12-19T01:19:28.457Z,40.33
2022-12-19T01:21:55.162Z,41.83
2022-12-19T01:24:22.241Z,41.97
2022-12-19T01:26:49.479Z,38.28
2022-12-19T01:29:16.390Z,36.70
2022-12-19T01:31:43.419Z,38.28
2022-12-19T01:34:10.413Z,39.95
2022-12-19T01:36:39.615Z,40.55
2022-12-19T01:39:07.400Z,43.47
2022-12-19T01:41:34.196Z,39.50
2022-12-19T01:44:06.496Z,44.35
2022-12-19T01:46:41.480Z,40.40
2022-12-19T01:49:20.957Z,40.47
2022-12-19T01:51:54.784Z,36.90
2022-12-19T01:54:25.566Z,40.70
2022-12-19T01:56:55.794Z,39.58
2022-12-19T01:59:47.974Z,45.05
2022-12-19T02:02:28.018Z,43.47
2022-12-19T02:04:54.876Z,44.67
2022-12-19T02:07:25.007Z,39.13
2022-12-19T02:09:56.843Z,41.70
2022-12-19T02:12:35.298Z,43.10
2022-12-19T02:15:05.798Z,43.25
2022-12-19T02:17:56.687Z,39.83
2022-12-19T02:20:52.278Z,36.70
2022-12-19T02:23:42.647Z,43.17
2022-12-19T02:26:46.362Z,37.97
2022-12-19T02:29:48.818Z,39.55
2022-12-19T02:32:25.196Z,36.58
2022-12-19T02:35:09.773Z,43.17
2022-12-19T02:38:06.349Z,40.00
2022-12-19T02:40:45.043Z,40.45
2022-12-19T02:43:17.824Z,42.22
2022-12-19T02:45:46.428Z,46.83
2022-12-19T02:48:19.068Z,41.03
2022-12-19T02:53:16.863Z,45.70
2022-12-19T02:56:09.364Z,49.78
2022-12-19T02:58:50.938Z,40.85
2022-12-19T03:01:27.959Z,45.60
2022-12-19T03:04:07.259Z,46.10
2022-12-19T03:06:45.911Z,48.40
2022-12-19T03:09:22.852Z,49.58
2022-12-19T03:11:55.370Z,42.88
2022-12-19T03:16:53.332Z,48.17
2022-12-19T03:19:20.572Z,51.15
2022-12-19T03:21:49.259Z,40.65
2022-12-19T03:24:17.700Z,45.63
2022-12-19T03:26:53.313Z,52.15
2022-12-19T03:29:33.069Z,51.65
2022-12-19T03:32:03.268Z,49.03
2022-12-19T03:34:45.067Z,47.60
2022-12-19T03:37:16.604Z,50.10
2022-12-19T03:39:46.896Z,47.30
2022-12-19T03:42:40.023Z,46.92
2022-12-19T03:45:07.922Z,52.38
2022-12-19T03:47:50.979Z,47.92
2022-12-19T03:50:18.554Z,55.47
2022-12-19T03:52:56.343Z,55.08
2022-12-19T03:55:47.404Z,51.97
2022-12-19T03:58:20.744Z,50.67
2022-12-19T04:00:49.577Z,58.42
2022-12-19T04:03:17.862Z,51.55
2022-12-19T04:05:46.511Z,57.97
2022-12-19T04:08:14.534Z,55.08
2022-12-19T04:10:48.306Z,53.20
2022-12-19T04:13:19.891Z,54.00
2022-12-19T04:16:05.409Z,57.15
2022-12-19T04:18:33.643Z,50.25
2022-12-19T04:21:22.243Z,52.33
2022-12-19T04:23:55.070Z,58.03
2022-12-19T04:26:23.441Z,61.15
2022-12-19T04:28:58.687Z,59.78
2022-12-19T04:31:25.610Z,52.42
2022-12-19T04:33:52.431Z,51.92
2022-12-19T04:36:19.446Z,56.20
2022-12-19T04:38:46.208Z,49.22
2022-12-19T04:41:12.924Z,59.00
2022-12-19T04:43:39.827Z,55.22
2022-12-19T04:46:06.599Z,55.30
2022-12-19T04:48:35.847Z,55.40
2022-12-19T04:51:02.731Z,56.45
2022-12-19T04:53:31.394Z,49.97
2022-12-19T04:56:02.768Z,59.13
2022-12-19T04:58:29.546Z,50.70
2022-12-19T05:01:03.734Z,57.92
2022-12-19T05:03:30.821Z,50.80
2022-12-19T05:06:12.774Z,64.50
2022-12-19T05:08:41.783Z,55.53
2022-12-19T05:11:14.599Z,55.65
2022-12-19T05:13:45.942Z,47.05
2022-12-19T05:16:13.613Z,57.35
2022-12-19T05:18:40.518Z,53.15
2022-12-19T05:21:07.577Z,53.47
2022-12-19T05:23:34.790Z,55.35
2022-12-19T05:26:03.399Z,52.33
2022-12-19T05:28:31.938Z,60.25
2022-12-19T05:31:12.189Z,58.40
2022-12-19T05:33:40.660Z,54.28
2022-12-19T05:36:08.505Z,56.83
2022-12-19T05:38:36.195Z,57.03
2022-12-19T05:41:17.613Z,60.67
2022-12-19T05:43:45.810Z,54.60
2022-12-19T05:46:12.643Z,61.63
2022-12-19T05:48:39.503Z,52.72
2022-12-19T05:51:06.319Z,54.67
2022-12-19T05:53:35.928Z,52.17
2022-12-19T05:56:08.517Z,57.53
2022-12-19T05:58:36.606Z,53.55
2022-12-19T06:01:12.016Z,52.70
2022-12-19T06:03:38.786Z,47.80
2022-12-19T06:06:07.756Z,46.70
2022-12-19T06:08:35.269Z,48.65
2022-12-19T06:11:04.225Z,47.92
2022-12-19T06:13:32.039Z,53.30
2022-12-19T06:16:22.744Z,54.30
2022-12-19T06:18:49.776Z,46.88
2022-12-19T06:21:19.323Z,54.03
2022-12-19T06:23:46.796Z,45.85
2022-12-19T06:26:19.548Z,48.17
2022-12-19T06:28:48.082Z,53.40
2022-12-19T06:31:15.488Z,51.15
2022-12-19T06:33:42.631Z,55.08
2022-12-19T06:36:23.982Z,46.67
2022-12-19T06:38:51.269Z,44.67
2022-12-19T06:41:37.268Z,52.50
2022-12-19T06:44:06.852Z,49.47
2022-12-19T06:46:34.250Z,49.10
2022-12-19T06:49:02.197Z,50.22
2022-12-19T06:51:29.311Z,50.42
2022-12-19T06:53:56.076Z,49.17
2022-12-19T06:56:23.563Z,40.10
2022-12-19T06:58:50.862Z,48.13
2022-12-19T07:01:31.060Z,41.75
2022-12-19T07:03:58.599Z,42.85
2022-12-19T07:06:25.450Z,42.00
2022-12-19T07:08:53.360Z,45.08
2022-12-19T07:11:20.063Z,43.92
2022-12-19T07:13:46.923Z,43.30
2022-12-19T07:16:13.698Z,39.25
2022-12-19T07:18:41.032Z,43.40
2022-12-19T07:21:11.074Z,33.55
2022-12-19T07:23:38.406Z,37.72
2022-12-19T07:26:05.352Z,37.65
2022-12-19T07:28:34.214Z,41.55
2022-12-19T07:31:01.060Z,35.28
2022-12-19T07:33:27.755Z,35.72
2022-12-19T07:35:54.505Z,37.78
2022-12-19T07:38:21.233Z,37.88
2022-12-19T07:40:47.933Z,38.33
2022-12-19T07:43:14.657Z,36.28
2022-12-19T07:45:42.646Z,34.63
2022-12-19T07:48:10.136Z,33.30
2022-12-19T07:50:36.910Z,35.72
2022-12-19T07:53:03.652Z,31.40
2022-12-19T07:55:30.480Z,30.85
2022-12-19T07:57:57.321Z,34.40
2022-12-19T08:00:24.193Z,39.75
2022-12-19T08:02:51.078Z,35.70
2022-12-19T08:05:19.130Z,31.17
2022-12-19T08:07:45.873Z,32.65
2022-12-19T08:10:14.930Z,30.08
2022-12-19T08:12:42.168Z,31.08
2022-12-19T08:15:09.571Z,32.97
2022-12-19T08:17:41.541Z,31.10
2022-12-19T08:20:11.318Z,35.00
2022-12-19T08:22:38.035Z,43.22
2022-12-19T08:25:06.973Z,34.75
2022-12-19T08:27:34.687Z,31.55
2022-12-19T08:30:01.362Z,35.25
2022-12-19T08:32:29.529Z,33.05
2022-12-19T08:34:56.717Z,33.20
2022-12-19T08:37:23.481Z,35.92
2022-12-19T08:39:50.181Z,36.83
2022-12-19T08:42:16.845Z,31.40
2022-12-19T08:44:43.511Z,33.95
2022-12-19T08:47:10.199Z,34.08
2022-12-19T08:49:36.991Z,33.35
2022-12-19T08:52:03.806Z,35.67
2022-12-19T08:54:30.509Z,35.30
2022-12-19T08:56:57.759Z,40.42
2022-12-19T08:59:31.479Z,35.10
2022-12-19T09:02:00.412Z,33.17
2022-12-19T09:05:57.342Z,35.70
2022-12-19T09:07:16.068Z,39.80
2022-12-19T09:09:44.268Z,38.22
2022-12-19T09:12:12.777Z,34.05
2022-12-19T09:14:39.547Z,37.83
2022-12-19T09:17:06.485Z,33.30
2022-12-19T09:19:33.466Z,37.42
2022-12-19T09:22:00.312Z,30.00
2022-12-19T09:24:27.246Z,38.03
2022-12-19T09:26:53.934Z,31.13
2022-12-19T09:29:22.108Z,29.75
2022-12-19T09:31:55.768Z,30.52
2022-12-19T09:34:38.323Z,33.95
2022-12-19T09:37:08.105Z,39.95
2022-12-19T09:39:36.076Z,29.80
2022-12-19T09:42:15.295Z,35.15
2022-12-19T09:44:54.922Z,28.80
2022-12-19T09:47:29.021Z,24.60
2022-12-19T09:49:57.297Z,28.27
2022-12-19T09:52:47.187Z,27.17
2022-12-19T09:55:28.612Z,25.35
2022-12-19T09:58:12.111Z,27.23
2022-12-19T10:00:47.063Z,25.23
2022-12-19T10:03:29.832Z,26.35
2022-12-19T10:06:44.050Z,30.15
2022-12-19T10:10:37.566Z,25.35
2022-12-19T10:12:45.227Z,23.23
2022-12-19T10:15:47.255Z,26.88
2022-12-19T10:18:54.537Z,23.50
2022-12-19T10:25:09.077Z,29.30
2022-12-19T10:27:59.311Z,22.15
2022-12-19T10:30:32.027Z,26.33
2022-12-19T10:33:31.887Z,24.75
2022-12-19T10:36:02.093Z,23.52
2022-12-19T10:38:56.576Z,21.60
2022-12-19T10:41:30.309Z,25.92
2022-12-19T10:44:09.518Z,25.27
2022-12-19T10:46:43.092Z,30.98
2022-12-19T10:49:14.615Z,22.13
2022-12-19T10:51:42.339Z,23.40
2022-12-19T10:54:09.408Z,21.05
2022-12-19T10:56:37.919Z,22.20
2022-12-19T10:59:16.885Z,21.98
2022-12-19T11:01:44.805Z,21.27
2022-12-19T11:04:34.888Z,26.58
2022-12-19T11:07:07.134Z,20.00
2022-12-19T11:09:46.761Z,19.98
2022-12-19T11:17:37.128Z,19.25
2022-12-19T11:20:50.025Z,22.30
2022-12-19T11:25:50.431Z,27.35
2022-12-19T11:29:18.491Z,19.80
2022-12-19T11:29:30.353Z,22.95
2022-12-19T11:29:39.997Z,23.00
2022-12-19T11:32:43.637Z,19.73
2022-12-19T11:35:24.770Z,20.13
2022-12-19T11:37:58.494Z,17.70
2022-12-19T11:40:46.587Z,20.27
2022-12-19T11:46:17.670Z,18.70
2022-12-19T11:48:53.591Z,19.25
2022-12-19T11:51:40.323Z,19.90
2022-12-19T11:54:13.991Z,21.83
2022-12-19T11:56:41.694Z,19.02
2022-12-19T11:59:38.186Z,20.55
2022-12-19T12:02:30.323Z,20.13
2022-12-19T12:05:21.695Z,20.70
2022-12-19T12:09:24.564Z,20.23
2022-12-19T12:15:19.019Z,20.85
2022-12-19T12:26:42.540Z,20.17
2022-12-19T12:30:18.110Z,17.20
2022-12-19T12:31:25.830Z,18.55
2022-12-19T12:31:32.292Z,16.73
2022-12-19T12:31:57.403Z,18.27
2022-12-19T12:31:59.001Z,15.07
2022-12-19T12:35:56.480Z,17.42
2022-12-19T12:38:29.571Z,18.45
2022-12-19T12:41:15.982Z,15.43
2022-12-19T12:43:51.603Z,13.75
2022-12-19T12:46:26.225Z,12.98
2022-12-19T12:49:04.388Z,14.65
2022-12-19T12:51:33.295Z,13.38
2022-12-19T12:54:07.442Z,14.00
2022-12-19T12:56:36.219Z,13.75
2022-12-19T12:59:07.358Z,19.15
2022-12-19T13:01:40.148Z,15.38
2022-12-19T13:04:13.219Z,16.25
2022-12-19T13:06:50.656Z,16.67
2022-12-19T13:09:30.074Z,15.85
2022-12-19T13:12:18.457Z,20.60
2022-12-19T13:14:50.869Z,14.18
2022-12-19T13:17:33.180Z,15.20
2022-12-19T13:20:06.195Z,13.80
2022-12-19T13:22:32.790Z,13.20
2022-12-19T13:25:00.945Z,15.20
2022-12-19T13:27:41.211Z,18.67
2022-12-19T13:30:12.278Z,14.30
2022-12-19T13:32:39.133Z,12.68
2022-12-19T13:36:18.025Z,13.18
2022-12-19T13:39:48.640Z,11.65
2022-12-19T13:40:57.663Z,13.57
2022-12-19T13:43:45.912Z,17.90
2022-12-19T13:46:38.901Z,13.73
2022-12-19T13:52:10.980Z,11.40
2022-12-19T13:54:50.543Z,11.60
2022-12-19T13:57:23.080Z,11.13
2022-12-19T14:00:00.399Z,11.52
2022-12-19T14:02:44.181Z,10.50
2022-12-19T14:06:14.436Z,13.02
2022-12-19T14:08:20.605Z,12.00
2022-12-19T14:11:34.265Z,10.73
2022-12-19T14:14:10.263Z,13.80
2022-12-19T14:16:45.207Z,11.07
2022-12-19T14:19:22.736Z,13.48
2022-12-19T14:22:05.227Z,20.20
2022-12-19T14:24:36.878Z,11.57
2022-12-19T14:28:27.103Z,14.32
2022-12-19T14:30:27.401Z,12.23
2022-12-19T14:33:40.325Z,11.07
2022-12-19T14:36:10.559Z,11.65
2022-12-19T14:39:22.535Z,9.98
2022-12-19T14:41:46.411Z,11.52
2022-12-19T14:52:34.906Z,15.15
2022-12-19T14:53:34.017Z,10.90
2022-12-19T14:54:22.221Z,10.82
2022-12-19T14:54:40.046Z,15.32
2022-12-19T14:56:19.577Z,11.07
2022-12-19T14:58:53.361Z,13.32
2022-12-19T15:01:29.381Z,13.57
2022-12-19T15:04:47.855Z,13.20
2022-12-19T15:07:08.790Z,10.90
2022-12-19T15:11:03.269Z,14.02
2022-12-19T15:14:57.048Z,10.00
2022-12-19T15:16:05.742Z,9.75
2022-12-19T15:18:32.576Z,9.60
2022-12-19T15:21:04.855Z,13.10
2022-12-19T15:23:31.833Z,10.10
2022-12-19T15:26:07.934Z,11.57
2022-12-19T15:28:50.154Z,11.90
2022-12-19T15:31:32.233Z,12.20
2022-12-19T15:34:33.116Z,8.82
2022-12-19T15:36:46.439Z,13.18
2022-12-19T15:39:14.905Z,11.93
2022-12-19T15:41:42.861Z,18.27
2022-12-19T15:44:24.985Z,12.23
2022-12-19T15:46:52.231Z,10.90
2022-12-19T15:49:20.756Z,11.07
2022-12-19T15:51:48.904Z,11.30
2022-12-19T15:57:02.793Z,11.82
2022-12-19T15:59:37.391Z,10.82
2022-12-19T16:02:16.186Z,14.55
2022-12-19T16:04:43.828Z,10.32
2022-12-19T16:07:16.587Z,9.52
2022-12-19T16:12:17.861Z,10.65
2022-12-19T16:14:46.044Z,13.23
2022-12-19T16:17:19.497Z,11.50
2022-12-19T16:19:46.229Z,16.80
2022-12-19T16:22:24.635Z,12.18
2022-12-19T16:24:53.222Z,10.15
2022-12-19T16:27:28.168Z,10.40
2022-12-19T16:29:55.663Z,9.38
2022-12-19T16:32:24.260Z,11.63
2022-12-19T16:34:52.875Z,11.00
2022-12-19T16:37:19.610Z,11.75
2022-12-19T16:39:46.310Z,11.23
2022-12-19T16:42:17.216Z,12.15
2022-12-19T16:44:47.945Z,9.02
2022-12-19T16:47:17.307Z,8.98
2022-12-19T16:49:44.908Z,9.88
2022-12-19T16:52:12.226Z,12.23
2022-12-19T16:54:39.274Z,8.63
2022-12-19T16:57:07.245Z,13.23
2022-12-19T16:59:37.260Z,9.10
2022-12-19T17:02:32.286Z,10.02
2022-12-19T17:04:59.272Z,8.45
2022-12-19T17:07:28.734Z,9.57
2022-12-19T17:09:55.573Z,10.63
2022-12-19T17:12:22.885Z,9.82
2022-12-19T17:14:49.700Z,12.63
2022-12-19T17:17:16.860Z,12.05
2022-12-19T17:19:45.397Z,11.68
2022-12-19T17:22:18.234Z,10.45
2022-12-19T17:24:49.023Z,9.15
2022-12-19T17:27:17.428Z,9.30
2022-12-19T17:29:44.574Z,11.65
2022-12-19T17:32:23.200Z,10.48
2022-12-19T17:34:50.335Z,10.18
2022-12-19T17:37:17.432Z,12.88
2022-12-19T17:39:44.115Z,9.93
2022-12-19T17:42:22.937Z,7.47
2022-12-19T17:44:50.280Z,13.55
2022-12-19T17:47:19.635Z,11.25
2022-12-19T17:49:47.904Z,9.00
2022-12-19T17:52:17.394Z,7.20
2022-12-19T17:54:44.109Z,9.43
2022-12-19T17:57:15.205Z,9.20
2022-12-19T17:59:42.365Z,9.63
2022-12-19T18:02:24.857Z,9.23
2022-12-19T18:04:52.690Z,15.23
2022-12-19T18:07:19.460Z,9.88
2022-12-19T18:09:48.437Z,11.20
2022-12-19T18:12:15.212Z,8.98
2022-12-19T18:14:41.909Z,8.38
2022-12-19T18:17:12.446Z,7.78
2022-12-19T18:19:39.506Z,8.98
2022-12-19T18:22:13.292Z,8.82
2022-12-19T18:24:40.763Z,9.35
2022-12-19T18:27:07.547Z,9.60
2022-12-19T18:29:34.931Z,9.48
2022-12-19T18:32:01.762Z,8.73
2022-12-19T18:34:32.010Z,7.88
2022-12-19T18:36:58.659Z,9.63
2022-12-19T18:39:27.870Z,10.38
2022-12-19T18:41:55.020Z,8.35
2022-12-19T18:44:23.024Z,8.65
2022-12-19T18:46:51.640Z,7.45
2022-12-19T18:49:19.003Z,9.10
2022-12-19T18:51:45.745Z,9.50
2022-12-19T18:54:15.282Z,7.97
2022-12-19T18:56:41.975Z,9.35
2022-12-19T18:59:08.993Z,8.85
2022-12-19T19:01:40.569Z,11.73
2022-12-19T19:04:07.504Z,7.70
2022-12-19T19:06:37.770Z,10.27
2022-12-19T19:09:14.617Z,7.43
2022-12-19T19:11:59.775Z,8.60
2022-12-19T19:14:26.483Z,7.75
2022-12-19T19:16:53.703Z,7.60
2022-12-19T19:19:20.507Z,12.27
2022-12-19T19:21:47.216Z,8.50
2022-12-19T19:24:17.271Z,7.60
2022-12-19T19:26:44.485Z,7.40
2022-12-19T19:29:13.374Z,14.52
2022-12-19T19:31:44.049Z,7.25
2022-12-19T19:34:34.097Z,12.02
2022-12-19T19:37:03.837Z,6.28
2022-12-19T19:39:33.026Z,6.70
2022-12-19T19:42:01.052Z,8.30
2022-12-19T19:44:28.267Z,6.88
2022-12-19T19:46:54.963Z,8.02
2022-12-19T19:49:22.629Z,7.03
2022-12-19T19:51:49.455Z,7.00
2022-12-19T19:54:16.159Z,8.05
2022-12-19T19:56:42.918Z,6.80
2022-12-19T19:59:09.665Z,5.03
2022-12-19T20:01:36.591Z,7.68
2022-12-19T20:04:03.998Z,11.02
2022-12-19T20:06:30.990Z,7.75
2022-12-19T20:08:57.695Z,5.30
2022-12-19T20:11:24.417Z,8.43
2022-12-19T20:13:51.118Z,6.88
2022-12-19T20:16:18.916Z,6.05
2022-12-19T20:18:50.852Z,6.22
2022-12-19T20:21:19.739Z,7.03
2022-12-19T20:23:46.699Z,10.13
2022-12-19T20:26:15.477Z,6.93
2022-12-19T20:28:48.232Z,8.65
2022-12-19T20:31:20.055Z,6.65
2022-12-19T20:33:48.237Z,6.40
2022-12-19T20:36:15.887Z,6.40
2022-12-19T20:38:42.835Z,10.32
2022-12-19T20:41:10.317Z,8.48
2022-12-19T20:43:38.486Z,8.45
2022-12-19T20:46:07.866Z,6.30
2022-12-19T20:48:34.862Z,10.38
2022-12-19T20:51:04.580Z,6.45
2022-12-19T20:53:33.512Z,6.68
2022-12-19T20:56:04.751Z,7.60
2022-12-19T20:58:33.586Z,6.68
2022-12-19T21:01:06.323Z,9.10
2022-12-19T21:03:33.689Z,17.02
2022-12-19T21:06:00.908Z,7.75
2022-12-19T21:08:28.058Z,6.93
2022-12-19T21:10:55.114Z,9.23
2022-12-19T21:13:24.683Z,9.55
2022-12-19T21:15:53.131Z,7.15
2022-12-19T21:18:20.127Z,9.98
2022-12-19T21:20:47.277Z,12.02
2022-12-19T21:23:14.436Z,6.65
2022-12-19T21:25:41.178Z,6.55
2022-12-19T21:28:08.616Z,7.72
2022-12-19T21:30:35.627Z,7.97
2022-12-19T21:33:02.678Z,7.90
2022-12-19T21:35:37.870Z,6.95
2022-12-19T21:38:04.648Z,7.60
2022-12-19T21:40:31.390Z,8.73
2022-12-19T21:42:58.111Z,6.30
2022-12-19T21:45:24.822Z,7.25
2022-12-19T21:47:51.553Z,7.15
2022-12-19T21:50:18.388Z,5.70
2022-12-19T21:52:45.103Z,10.30
2022-12-19T21:55:11.843Z,9.93
2022-12-19T21:57:42.467Z,7.82
2022-12-19T22:00:11.601Z,6.40
2022-12-19T22:02:39.532Z,7.82
2022-12-19T22:05:08.219Z,9.50
2022-12-19T22:07:34.966Z,6.57
2022-12-19T22:10:01.748Z,7.60
2022-12-19T22:12:28.455Z,6.07
2022-12-19T22:14:55.225Z,7.65
2022-12-19T22:17:21.909Z,5.30
2022-12-19T22:19:48.552Z,5.03
2022-12-19T22:22:15.224Z,7.65
2022-12-19T22:24:41.996Z,9.68
2022-12-19T22:27:08.985Z,8.93
2022-12-19T22:29:36.491Z,9.43
2022-12-19T22:32:04.339Z,9.48
2022-12-19T22:34:31.185Z,8.48
2022-12-19T22:36:58.298Z,13.45
2022-12-19T22:39:25.565Z,7.15
2022-12-19T22:41:52.363Z,4.60
2022-12-19T22:44:23.676Z,9.32
2022-12-19T22:46:51.566Z,8.73
2022-12-19T22:49:18.366Z,5.40
2022-12-19T22:51:45.257Z,6.90
2022-12-19T22:54:12.546Z,6.70
2022-12-19T22:56:40.392Z,6.05
2022-12-19T22:59:08.445Z,5.03
2022-12-19T23:01:40.964Z,4.85
2022-12-19T23:04:10.554Z,6.88
2022-12-19T23:06:38.335Z,6.10
2022-12-19T23:09:09.581Z,8.23
2022-12-19T23:11:38.674Z,6.35
2022-12-19T23:14:07.341Z,8.52
2022-12-19T23:16:34.438Z,3.83
2022-12-19T23:19:01.272Z,5.00
2022-12-19T23:21:27.977Z,7.55
2022-12-19T23:23:55.951Z,6.88
2022-12-19T23:26:26.471Z,6.38
2022-12-19T23:28:58.738Z,9.50
2022-12-19T23:31:27.078Z,5.85
2022-12-19T23:33:54.972Z,7.75
2022-12-19T23:36:45.077Z,4.75
2022-12-19T23:39:11.095Z,9.10
2022-12-19T23:41:37.916Z,5.13
2022-12-19T23:44:04.912Z,3.85
2022-12-19T23:46:31.752Z,7.05
2022-12-19T23:48:58.500Z,5.25
2022-12-19T23:51:27.027Z,4.70
2022-12-19T23:53:55.086Z,4.68
2022-12-19T23:56:27.916Z,4.53
2022-12-19T23:58:55.294Z,4.90
